Terminal Aerodrome Forecast
Issued by NWS Wilmington, OH

Current Version | Previous Version | Graphics & Text | Print | Product List | Glossary On
Versions: 1 2 3 4 5 6 7 8 9 10 11 12 13 14 15 16 17 18 19 20 21 22 23 24 25 26 27 28 29 30 31 32 33
000
FTUS41 KILN 220900 AAC
TAFCVG
TAF AMD
KCVG 220900Z 2209/2312 16004KT 5SM BR VCSH SCT100 OVC150
     FM221500 25008KT P6SM -SHRA VCTS BKN035CB OVC150
     FM222000 27007KT P6SM BKN040
     FM230000 25004KT P6SM VCTS BKN040CB
     FM230300 24004KT P6SM SCT040 BKN080=

USA.gov is the U.S. government's official web portal to all federal, state and local government web resources and services.